首页
METAR-TAF:

METAR-TAF

机场 :

Cazaux, 法国

纬度: 44-32N, 经度: 001-08W, 海拔: 25米

当前天气观测

该预报发布于26分钟前的21:00 UTC
静风
温度 10°C
湿度 93%
气压 1007 hPa
能见度10公里或以上
1500米以下无云,无积雨云

METAR: LFBC 122100Z AUTO 00000KT CAVOK 10/09 Q1007

时间: 22:26 (21:26 UTC)

预报

该预报发布于3小时和24分钟前的18:02 UTC
预报有效从12日的 18点(UTC)到 13日的 15点(UTC)
风速2节,风向多变
能见度10公里或以上
散云层高于3000英尺
多云层高于5000英尺
短暂存在
从 12日的 18点(UTC)到 13日的 08点(UTC)
能見度: 0800
碎片雾
成为
从 13日的 13点(UTC)到 13日的 14点(UTC)
风速10节,风向南转西南

TAF: LFBC 121802Z 1218/1315 VRB02KT 9999 SCT030 BKN050 TEMPO 1218/1308 0800 BCFG VV/// BECMG 1313/1314 21010KT

超过4000个机场的气象观测和天气预报(METAR&TAF报告)。

可查询的气象台以黄色和红色小点在地图上表示。

将鼠标移到小点上方,可查看气象台名称。

然后点击查看天气观测和预报。

如需切换地图:点击带黑十字的绿色按钮放大地图;点击带横线的绿色按钮缩小地图;或者点击绿色箭头查看邻近地区的地图。


METAR-TAF: